sensor_id;sensor_type;location;lat;lon;timestamp;pressure;altitude;pressure_sealevel;temperature;humidity
44839;BME280;30576;42.098;24.876;2023-02-25T00:01:17;99355.00;;;6.08;72.40
44839;BME280;30576;42.098;24.876;2023-02-25T00:03:42;99354.97;;;6.16;72.24
44839;BME280;30576;42.098;24.876;2023-02-25T00:06:08;99353.22;;;6.21;72.24
44839;BME280;30576;42.098;24.876;2023-02-25T00:08:36;99361.97;;;6.15;72.18
44839;BME280;30576;42.098;24.876;2023-02-25T00:11:02;99358.47;;;6.08;72.92
44839;BME280;30576;42.098;24.876;2023-02-25T00:13:28;99362.84;;;6.09;72.70
44839;BME280;30576;42.098;24.876;2023-02-25T00:15:54;99360.22;;;5.96;73.18
44839;BME280;30576;42.098;24.876;2023-02-25T00:18:22;99357.59;;;5.96;72.97
44839;BME280;30576;42.098;24.876;2023-02-25T00:20:47;99368.09;;;6.05;72.28
44839;BME280;30576;42.098;24.876;2023-02-25T00:23:13;99366.31;;;5.95;72.59
44839;BME280;30576;42.098;24.876;2023-02-25T00:25:38;99372.47;;;6.06;71.12
44839;BME280;30576;42.098;24.876;2023-02-25T00:28:03;99363.72;;;5.78;70.55
44839;BME280;30576;42.098;24.876;2023-02-25T00:30:31;99357.63;;;5.46;71.21
44839;BME280;30576;42.098;24.876;2023-02-25T00:32:56;99354.16;;;5.44;71.62
44839;BME280;30576;42.098;24.876;2023-02-25T00:35:21;99357.63;;;5.42;71.79
44839;BME280;30576;42.098;24.876;2023-02-25T00:37:46;99358.50;;;5.41;71.85
44839;BME280;30576;42.098;24.876;2023-02-25T00:40:14;99355.03;;;5.48;72.12
44839;BME280;30576;42.098;24.876;2023-02-25T00:42:40;99348.94;;;5.44;71.94
44839;BME280;30576;42.098;24.876;2023-02-25T00:45:06;99351.53;;;5.50;71.76
44839;BME280;30576;42.098;24.876;2023-02-25T00:47:31;99347.16;;;5.28;73.35
44839;BME280;30576;42.098;24.876;2023-02-25T00:49:57;99342.81;;;5.10;73.75
44839;BME280;30576;42.098;24.876;2023-02-25T00:52:22;99335.81;;;5.12;73.54
44839;BME280;30576;42.098;24.876;2023-02-25T00:54:47;99323.63;;;5.20;73.92
44839;BME280;30576;42.098;24.876;2023-02-25T00:57:12;99330.59;;;5.24;73.87
44839;BME280;30576;42.098;24.876;2023-02-25T00:59:38;99323.63;;;5.29;73.99
44839;BME280;30576;42.098;24.876;2023-02-25T01:02:03;99323.63;;;5.38;73.27
44839;BME280;30576;42.098;24.876;2023-02-25T01:04:29;99314.06;;;5.16;73.83
44839;BME280;30576;42.098;24.876;2023-02-25T01:06:54;99300.06;;;5.15;73.71
44839;BME280;30576;42.098;24.876;2023-02-25T01:09:19;99296.59;;;5.27;73.29
44839;BME280;30576;42.098;24.876;2023-02-25T01:11:45;99297.44;;;5.00;74.77
44839;BME280;30576;42.098;24.876;2023-02-25T01:14:15;99297.44;;;4.98;76.50
44839;BME280;30576;42.098;24.876;2023-02-25T01:16:41;99301.81;;;5.04;76.70
44839;BME280;30576;42.098;24.876;2023-02-25T01:19:13;99296.59;;;4.99;78.29
44839;BME280;30576;42.098;24.876;2023-02-25T01:21:40;99291.34;;;4.90;79.45
44839;BME280;30576;42.098;24.876;2023-02-25T01:40:07;99237.31;;;4.72;75.78
44839;BME280;30576;42.098;24.876;2023-02-25T01:42:34;99213.72;;;4.40;75.47
44839;BME280;30576;42.098;24.876;2023-02-25T01:47:38;99299.19;;;4.93;75.13
44839;BME280;30576;42.098;24.876;2023-02-25T01:50:05;99184.91;;;3.98;74.68
44839;BME280;30576;42.098;24.876;2023-02-25T01:52:31;99236.34;;;4.33;74.58
44839;BME280;30576;42.098;24.876;2023-02-25T01:54:56;99261.66;;;4.53;74.36
44839;BME280;30576;42.098;24.876;2023-02-25T01:57:24;99203.22;;;4.18;74.16
44839;BME280;30576;42.098;24.876;2023-02-25T01:59:51;99212.84;;;4.35;73.96
44839;BME280;30576;42.098;24.876;2023-02-25T02:02:20;99252.94;;;4.54;74.04
44839;BME280;30576;42.098;24.876;2023-02-25T02:04:48;99245.09;;;4.52;74.51
44839;BME280;30576;42.098;24.876;2023-02-25T02:07:15;99189.28;;;4.08;74.42
44839;BME280;30576;42.098;24.876;2023-02-25T02:09:42;99225.06;;;4.36;73.86
44839;BME280;30576;42.098;24.876;2023-02-25T02:12:21;99184.09;;;4.13;74.18
44839;BME280;30576;42.098;24.876;2023-02-25T02:14:46;99238.94;;;4.24;73.73
44839;BME280;30576;42.098;24.876;2023-02-25T02:17:26;99284.16;;;4.17;74.19
44839;BME280;30576;42.098;24.876;2023-02-25T02:20:11;99276.34;;;4.24;74.34
44839;BME280;30576;42.098;24.876;2023-02-25T02:31:04;99164.84;;;3.85;73.44
44839;BME280;30576;42.098;24.876;2023-02-25T02:36:50;99220.59;;;4.05;74.40
44839;BME280;30576;42.098;24.876;2023-02-25T02:39:42;99245.06;;;4.40;74.70
44839;BME280;30576;42.098;24.876;2023-02-25T02:44:47;99177.00;;;3.80;75.40
44839;BME280;30576;42.098;24.876;2023-02-25T02:47:24;99217.91;;;3.87;75.00
44839;BME280;30576;42.098;24.876;2023-02-25T02:52:47;99193.63;;;4.00;74.38
44839;BME280;30576;42.098;24.876;2023-02-25T02:55:26;99205.66;;;3.73;74.90
44839;BME280;30576;42.098;24.876;2023-02-25T02:58:20;99198.84;;;3.97;74.66
44839;BME280;30576;42.098;24.876;2023-02-25T03:00:51;99216.22;;;4.03;74.53
44839;BME280;30576;42.098;24.876;2023-02-25T03:03:23;99279.84;;;4.19;75.16
44839;BME280;30576;42.098;24.876;2023-02-25T03:06:01;99220.53;;;3.88;76.03
44839;BME280;30576;42.098;24.876;2023-02-25T03:08:28;99224.84;;;3.75;77.42
44839;BME280;30576;42.098;24.876;2023-02-25T03:10:56;99170.88;;;3.70;77.46
44839;BME280;30576;42.098;24.876;2023-02-25T03:13:21;99251.94;;;4.05;77.72
44839;BME280;30576;42.098;24.876;2023-02-25T03:15:46;99254.59;;;4.19;77.01
44839;BME280;30576;42.098;24.876;2023-02-25T03:18:34;99261.53;;;4.11;76.38
44839;BME280;30576;42.098;24.876;2023-02-25T03:21:03;99211.81;;;3.83;76.29
44839;BME280;30576;42.098;24.876;2023-02-25T03:23:32;99166.31;;;3.27;77.60
44839;BME280;30576;42.098;24.876;2023-02-25T03:26:21;99177.56;;;3.18;79.28
44839;BME280;30576;42.098;24.876;2023-02-25T03:28:47;99189.78;;;3.32;79.20
44839;BME280;30576;42.098;24.876;2023-02-25T03:31:17;99258.75;;;3.79;79.42
44839;BME280;30576;42.098;24.876;2023-02-25T03:33:53;99191.63;;;3.47;79.08
44839;BME280;30576;42.098;24.876;2023-02-25T03:36:32;99207.31;;;3.56;78.79
44839;BME280;30576;42.098;24.876;2023-02-25T03:39:06;99230.88;;;3.71;78.40
44839;BME280;30576;42.098;24.876;2023-02-25T03:41:37;99190.94;;;3.82;77.95
44839;BME280;30576;42.098;24.876;2023-02-25T03:44:07;99145.66;;;3.73;77.07
44839;BME280;30576;42.098;24.876;2023-02-25T03:46:34;99192.59;;;3.69;76.91
44839;BME280;30576;42.098;24.876;2023-02-25T03:49:02;99206.63;;;3.85;76.67
44839;BME280;30576;42.098;24.876;2023-02-25T03:51:32;99193.50;;;3.74;75.66
44839;BME280;30576;42.098;24.876;2023-02-25T03:53:58;99186.41;;;3.45;75.37
44839;BME280;30576;42.098;24.876;2023-02-25T03:56:23;99255.34;;;3.92;75.32
44839;BME280;30576;42.098;24.876;2023-02-25T03:58:49;99215.19;;;3.65;75.42
44839;BME280;30576;42.098;24.876;2023-02-25T04:01:25;99250.00;;;3.70;75.24
44839;BME280;30576;42.098;24.876;2023-02-25T04:03:53;99195.94;;;3.38;75.58
44839;BME280;30576;42.098;24.876;2023-02-25T04:06:22;99230.97;;;3.88;75.51
44839;BME280;30576;42.098;24.876;2023-02-25T04:08:48;99146.41;;;3.43;74.97
44839;BME280;30576;42.098;24.876;2023-02-25T04:11:13;99211.91;;;4.03;74.98
44839;BME280;30576;42.098;24.876;2023-02-25T04:13:38;99239.69;;;3.93;74.42
44839;BME280;30576;42.098;24.876;2023-02-25T04:16:04;99213.50;;;3.76;74.31
44839;BME280;30576;42.098;24.876;2023-02-25T04:18:29;99208.19;;;3.59;74.22
44839;BME280;30576;42.098;24.876;2023-02-25T04:20:55;99170.69;;;3.33;73.59
44839;BME280;30576;42.098;24.876;2023-02-25T04:23:20;99218.53;;;3.43;74.64
44839;BME280;30576;42.098;24.876;2023-02-25T04:25:46;99215.09;;;3.48;74.47
44839;BME280;30576;42.098;24.876;2023-02-25T04:28:11;99209.13;;;3.63;74.34
44839;BME280;30576;42.098;24.876;2023-02-25T04:30:37;99127.91;;;2.98;74.35
44839;BME280;30576;42.098;24.876;2023-02-25T04:33:02;99219.50;;;3.57;74.18
44839;BME280;30576;42.098;24.876;2023-02-25T04:35:28;99167.19;;;3.29;74.21
44839;BME280;30576;42.098;24.876;2023-02-25T04:37:53;99206.56;;;3.72;73.88
44839;BME280;30576;42.098;24.876;2023-02-25T04:40:19;99214.34;;;3.63;74.35
44839;BME280;30576;42.098;24.876;2023-02-25T04:42:45;99138.47;;;3.18;74.02
44839;BME280;30576;42.098;24.876;2023-02-25T04:45:12;99166.19;;;3.12;74.00
44839;BME280;30576;42.098;24.876;2023-02-25T04:47:37;99170.53;;;3.10;74.04
44839;BME280;30576;42.098;24.876;2023-02-25T04:50:03;99201.88;;;3.16;74.29
44839;BME280;30576;42.098;24.876;2023-02-25T04:52:29;99135.50;;;2.67;74.80
44839;BME280;30576;42.098;24.876;2023-02-25T04:54:54;99199.25;;;3.14;74.70
44839;BME280;30576;42.098;24.876;2023-02-25T04:57:20;99145.19;;;2.89;74.70
44839;BME280;30576;42.098;24.876;2023-02-25T04:59:45;99181.94;;;3.26;74.60
44839;BME280;30576;42.098;24.876;2023-02-25T05:02:11;99150.44;;;2.95;74.02
44839;BME280;30576;42.098;24.876;2023-02-25T05:04:38;99107.03;;;2.91;73.83
44839;BME280;30576;42.098;24.876;2023-02-25T05:07:04;99193.09;;;3.03;74.06
44839;BME280;30576;42.098;24.876;2023-02-25T05:09:30;99125.94;;;2.66;74.04
44839;BME280;30576;42.098;24.876;2023-02-25T05:11:56;99194.03;;;3.14;73.58
44839;BME280;30576;42.098;24.876;2023-02-25T05:14:21;99119.00;;;2.68;73.97
44839;BME280;30576;42.098;24.876;2023-02-25T05:16:47;99192.34;;;3.22;73.93
44839;BME280;30576;42.098;24.876;2023-02-25T05:19:22;99187.06;;;3.13;74.51
44839;BME280;30576;42.098;24.876;2023-02-25T05:21:51;99132.00;;;2.67;74.15
44839;BME280;30576;42.098;24.876;2023-02-25T05:24:17;99160.53;;;2.53;72.77
44839;BME280;30576;42.098;24.876;2023-02-25T05:26:43;99188.91;;;2.25;74.30
44839;BME280;30576;42.098;24.876;2023-02-25T05:29:09;99118.59;;;2.22;73.16
44839;BME280;30576;42.098;24.876;2023-02-25T05:31:34;99192.69;;;2.55;73.20
44839;BME280;30576;42.098;24.876;2023-02-25T05:34:00;99160.31;;;2.30;73.46
44839;BME280;30576;42.098;24.876;2023-02-25T05:36:25;99199.81;;;2.76;73.81
44839;BME280;30576;42.098;24.876;2023-02-25T05:38:55;99097.69;;;2.10;73.48
44839;BME280;30576;42.098;24.876;2023-02-25T05:41:23;99170.97;;;2.53;74.13
44839;BME280;30576;42.098;24.876;2023-02-25T05:43:48;99140.50;;;2.41;73.72
44839;BME280;30576;42.098;24.876;2023-02-25T05:46:14;99189.41;;;2.79;74.24
44839;BME280;30576;42.098;24.876;2023-02-25T05:48:40;99185.81;;;2.63;74.73
44839;BME280;30576;42.098;24.876;2023-02-25T05:51:10;99103.38;;;1.72;76.31
44839;BME280;30576;42.098;24.876;2023-02-25T05:53:36;99093.28;;;2.01;75.60
44839;BME280;30576;42.098;24.876;2023-02-25T05:56:03;99130.97;;;2.43;75.55
44839;BME280;30576;42.098;24.876;2023-02-25T05:58:30;99150.25;;;2.67;75.61
44839;BME280;30576;42.098;24.876;2023-02-25T06:00:55;99177.25;;;2.75;75.95
44839;BME280;30576;42.098;24.876;2023-02-25T06:03:20;99128.28;;;2.37;76.43
44839;BME280;30576;42.098;24.876;2023-02-25T06:05:46;99186.09;;;2.99;77.05
44839;BME280;30576;42.098;24.876;2023-02-25T06:08:11;99197.47;;;3.09;76.93
44839;BME280;30576;42.098;24.876;2023-02-25T06:10:38;99149.59;;;2.97;76.96
44839;BME280;30576;42.098;24.876;2023-02-25T06:13:05;99144.59;;;3.27;77.43
44839;BME280;30576;42.098;24.876;2023-02-25T06:15:31;99139.47;;;3.44;76.98
44839;BME280;30576;42.098;24.876;2023-02-25T06:17:57;99198.75;;;3.79;77.61
44839;BME280;30576;42.098;24.876;2023-02-25T06:20:22;99191.84;;;3.93;78.82
44839;BME280;30576;42.098;24.876;2023-02-25T06:22:52;99197.13;;;4.11;78.37
44839;BME280;30576;42.098;24.876;2023-02-25T06:25:19;99120.50;;;3.88;78.63
44839;BME280;30576;42.098;24.876;2023-02-25T06:27:44;99122.22;;;3.89;79.55
44839;BME280;30576;42.098;24.876;2023-02-25T06:30:10;99186.75;;;4.41;79.09
44839;BME280;30576;42.098;24.876;2023-02-25T06:32:36;99144.06;;;4.16;80.22
44839;BME280;30576;42.098;24.876;2023-02-25T06:35:01;99195.50;;;4.64;80.83
44839;BME280;30576;42.098;24.876;2023-02-25T06:37:27;99140.56;;;4.21;81.39
44839;BME280;30576;42.098;24.876;2023-02-25T06:39:52;99192.03;;;4.72;81.71
44839;BME280;30576;42.098;24.876;2023-02-25T06:42:17;99202.47;;;4.89;81.52
44839;BME280;30576;42.098;24.876;2023-02-25T06:44:43;99170.25;;;4.91;80.42
44839;BME280;30576;42.098;24.876;2023-02-25T06:47:08;99195.44;;;5.42;80.43
44839;BME280;30576;42.098;24.876;2023-02-25T06:49:34;99195.41;;;5.59;80.67
44839;BME280;30576;42.098;24.876;2023-02-25T06:51:59;99151.00;;;5.26;80.29
44839;BME280;30576;42.098;24.876;2023-02-25T06:54:25;99195.44;;;5.51;79.91
44839;BME280;30576;42.098;24.876;2023-02-25T06:56:52;99141.47;;;5.11;80.68
44839;BME280;30576;42.098;24.876;2023-02-25T06:59:19;99161.47;;;5.32;80.77
44839;BME280;30576;42.098;24.876;2023-02-25T07:01:44;99123.97;;;5.43;79.67
44839;BME280;30576;42.098;24.876;2023-02-25T07:04:14;99197.13;;;5.67;80.37
44839;BME280;30576;42.098;24.876;2023-02-25T07:06:40;99148.41;;;5.26;80.68
44839;BME280;30576;42.098;24.876;2023-02-25T07:09:05;99193.69;;;5.44;80.74
44839;BME280;30576;42.098;24.876;2023-02-25T07:11:31;99146.69;;;5.27;80.42
44839;BME280;30576;42.098;24.876;2023-02-25T07:13:59;99145.78;;;5.28;81.63
44839;BME280;30576;42.098;24.876;2023-02-25T07:16:25;99130.81;;;5.68;79.88
44839;BME280;30576;42.098;24.876;2023-02-25T07:18:53;99157.00;;;5.64;80.07
44839;BME280;30576;42.098;24.876;2023-02-25T07:21:18;99200.34;;;6.37;78.54
44839;BME280;30576;42.098;24.876;2023-02-25T07:23:44;99204.66;;;6.46;78.55
44839;BME280;30576;42.098;24.876;2023-02-25T07:26:11;99137.53;;;6.25;78.38
44839;BME280;30576;42.098;24.876;2023-02-25T07:28:38;99141.09;;;6.12;78.52
44839;BME280;30576;42.098;24.876;2023-02-25T07:31:07;99191.50;;;6.55;78.75
44839;BME280;30576;42.098;24.876;2023-02-25T07:33:34;99156.59;;;6.47;77.85
44839;BME280;30576;42.098;24.876;2023-02-25T07:35:59;99180.69;;;7.00;76.95
44839;BME280;30576;42.098;24.876;2023-02-25T07:38:24;99190.31;;;6.95;76.88
44839;BME280;30576;42.098;24.876;2023-02-25T07:40:50;99109.34;;;6.59;77.58
44839;BME280;30576;42.098;24.876;2023-02-25T07:43:15;99177.97;;;7.11;77.66
44839;BME280;30576;42.098;24.876;2023-02-25T07:45:41;99183.03;;;7.29;76.37
44839;BME280;30576;42.098;24.876;2023-02-25T07:48:07;99143.28;;;6.75;75.63
44839;BME280;30576;42.098;24.876;2023-02-25T07:50:32;99185.00;;;7.04;76.62
44839;BME280;30576;42.098;24.876;2023-02-25T07:52:58;99116.84;;;7.01;75.14
44839;BME280;30576;42.098;24.876;2023-02-25T07:55:26;99173.19;;;7.50;75.05
44839;BME280;30576;42.098;24.876;2023-02-25T07:57:52;99104.66;;;6.95;75.12
44839;BME280;30576;42.098;24.876;2023-02-25T08:00:17;99169.00;;;7.32;75.42
44839;BME280;30576;42.098;24.876;2023-02-25T08:02:43;99167.38;;;7.20;75.66
44839;BME280;30576;42.098;24.876;2023-02-25T08:05:09;99149.28;;;7.75;74.96
44839;BME280;30576;42.098;24.876;2023-02-25T08:07:34;99072.69;;;7.42;73.96
44839;BME280;30576;42.098;24.876;2023-02-25T08:09:59;99146.06;;;8.21;72.95
44839;BME280;30576;42.098;24.876;2023-02-25T08:12:28;99085.00;;;8.03;72.16
44839;BME280;30576;42.098;24.876;2023-02-25T08:14:53;99148.88;;;8.68;71.41
44839;BME280;30576;42.098;24.876;2023-02-25T08:17:20;99054.59;;;8.43;70.70
44839;BME280;30576;42.098;24.876;2023-02-25T08:19:45;99142.69;;;8.72;70.38
44839;BME280;30576;42.098;24.876;2023-02-25T08:22:10;99064.25;;;8.42;71.19
44839;BME280;30576;42.098;24.876;2023-02-25T08:24:36;99132.72;;;8.91;70.68
44839;BME280;30576;42.098;24.876;2023-02-25T08:27:02;99082.28;;;8.67;70.41
44839;BME280;30576;42.098;24.876;2023-02-25T08:29:27;99121.97;;;9.03;71.12
44839;BME280;30576;42.098;24.876;2023-02-25T08:31:53;99115.63;;;9.15;70.07
44839;BME280;30576;42.098;24.876;2023-02-25T08:34:19;99120.16;;;9.54;68.56
44839;BME280;30576;42.098;24.876;2023-02-25T08:36:44;99047.97;;;9.22;68.72
44839;BME280;30576;42.098;24.876;2023-02-25T08:39:09;99116.72;;;9.94;67.77
44839;BME280;30576;42.098;24.876;2023-02-25T08:41:35;99038.66;;;9.49;66.92
44839;BME280;30576;42.098;24.876;2023-02-25T08:44:01;99100.78;;;9.98;67.65
44839;BME280;30576;42.098;24.876;2023-02-25T08:46:28;99069.78;;;10.10;66.95
44839;BME280;30576;42.098;24.876;2023-02-25T08:48:55;99063.81;;;10.41;65.89
44839;BME280;30576;42.098;24.876;2023-02-25T08:51:22;99008.69;;;10.30;64.85
44839;BME280;30576;42.098;24.876;2023-02-25T08:53:48;99024.78;;;10.55;65.02
44839;BME280;30576;42.098;24.876;2023-02-25T08:56:14;99073.00;;;11.27;63.89
44839;BME280;30576;42.098;24.876;2023-02-25T08:58:40;99015.56;;;11.04;64.15
44839;BME280;30576;42.098;24.876;2023-02-25T09:01:08;99062.63;;;11.21;63.80
44839;BME280;30576;42.098;24.876;2023-02-25T09:03:41;99003.03;;;10.47;64.71
44839;BME280;30576;42.098;24.876;2023-02-25T09:06:20;99028.06;;;10.98;64.53
44839;BME280;30576;42.098;24.876;2023-02-25T09:08:46;98987.59;;;10.99;63.73
44839;BME280;30576;42.098;24.876;2023-02-25T09:11:13;99020.16;;;11.29;64.91
44839;BME280;30576;42.098;24.876;2023-02-25T09:13:39;99045.69;;;11.90;63.15
44839;BME280;30576;42.098;24.876;2023-02-25T09:16:04;98955.88;;;11.60;63.04
44839;BME280;30576;42.098;24.876;2023-02-25T09:18:30;99044.94;;;12.14;62.84
44839;BME280;30576;42.098;24.876;2023-02-25T09:20:56;99003.13;;;11.69;62.17
44839;BME280;30576;42.098;24.876;2023-02-25T09:23:22;99033.63;;;12.38;60.50
44839;BME280;30576;42.098;24.876;2023-02-25T09:25:47;98971.81;;;12.13;60.67
44839;BME280;30576;42.098;24.876;2023-02-25T09:28:12;99032.88;;;12.06;61.57
44839;BME280;30576;42.098;24.876;2023-02-25T09:30:38;99032.53;;;11.88;62.67
44839;BME280;30576;42.098;24.876;2023-02-25T09:33:03;99029.53;;;12.00;62.17
44839;BME280;30576;42.098;24.876;2023-02-25T09:35:29;99008.38;;;11.71;62.68
44839;BME280;30576;42.098;24.876;2023-02-25T09:37:54;99021.59;;;12.00;62.80
44839;BME280;30576;42.098;24.876;2023-02-25T09:40:20;98941.38;;;11.73;62.71
44839;BME280;30576;42.098;24.876;2023-02-25T09:43:09;99004.16;;;12.22;62.63
44839;BME280;30576;42.098;24.876;2023-02-25T09:45:39;98959.97;;;11.98;62.12
44839;BME280;30576;42.098;24.876;2023-02-25T09:48:21;98917.38;;;11.79;62.70
44839;BME280;30576;42.098;24.876;2023-02-25T09:50:53;98961.75;;;12.25;61.74
44839;BME280;30576;42.098;24.876;2023-02-25T09:53:25;98930.78;;;12.02;61.56
44839;BME280;30576;42.098;24.876;2023-02-25T09:55:54;98929.63;;;12.62;60.17
44839;BME280;30576;42.098;24.876;2023-02-25T10:03:46;98903.81;;;12.69;59.93
44839;BME280;30576;42.098;24.876;2023-02-25T10:06:23;98967.72;;;13.07;59.60
44839;BME280;30576;42.098;24.876;2023-02-25T10:09:02;98913.03;;;12.57;60.29
44839;BME280;30576;42.098;24.876;2023-02-25T10:20:47;98914.50;;;13.83;58.40
44839;BME280;30576;42.098;24.876;2023-02-25T10:26:15;98937.00;;;14.37;58.00
44839;BME280;30576;42.098;24.876;2023-02-25T10:28:44;98947.03;;;14.72;57.25
44839;BME280;30576;42.098;24.876;2023-02-25T10:31:17;98897.31;;;14.55;55.37
44839;BME280;30576;42.098;24.876;2023-02-25T10:33:46;98881.00;;;14.43;55.78
44839;BME280;30576;42.098;24.876;2023-02-25T10:36:17;98916.84;;;14.74;54.19
44839;BME280;30576;42.098;24.876;2023-02-25T10:38:51;98829.53;;;14.27;53.68
44839;BME280;30576;42.098;24.876;2023-02-25T10:41:19;98846.53;;;14.23;53.63
44839;BME280;30576;42.098;24.876;2023-02-25T10:43:51;98837.44;;;14.49;54.35
44839;BME280;30576;42.098;24.876;2023-02-25T10:46:27;98886.53;;;14.80;53.45
44839;BME280;30576;42.098;24.876;2023-02-25T10:48:57;98794.84;;;14.31;53.66
44839;BME280;30576;42.098;24.876;2023-02-25T10:51:23;98827.09;;;14.63;53.84
44839;BME280;30576;42.098;24.876;2023-02-25T10:56:23;98817.97;;;15.26;50.95
44839;BME280;30576;42.098;24.876;2023-02-25T10:59:07;98833.19;;;15.22;50.60
44839;BME280;30576;42.098;24.876;2023-02-25T11:01:44;98827.16;;;15.19;51.00
44839;BME280;30576;42.098;24.876;2023-02-25T11:04:18;98767.59;;;15.06;50.83
44839;BME280;30576;42.098;24.876;2023-02-25T11:06:44;98821.31;;;15.49;49.58
44839;BME280;30576;42.098;24.876;2023-02-25T11:11:56;98835.75;;;15.80;49.75
44839;BME280;30576;42.098;24.876;2023-02-25T11:14:28;98783.09;;;15.51;49.33
44839;BME280;30576;42.098;24.876;2023-02-25T11:17:03;98780.50;;;15.50;50.01
44839;BME280;30576;42.098;24.876;2023-02-25T11:19:33;98750.34;;;15.14;50.40
44839;BME280;30576;42.098;24.876;2023-02-25T11:22:06;98791.00;;;15.53;50.65
44839;BME280;30576;42.098;24.876;2023-02-25T11:24:33;98758.88;;;15.21;50.95
44839;BME280;30576;42.098;24.876;2023-02-25T11:27:02;98750.84;;;15.22;50.31
44839;BME280;30576;42.098;24.876;2023-02-25T11:29:34;98768.09;;;15.68;49.70
44839;BME280;30576;42.098;24.876;2023-02-25T11:32:17;98767.72;;;15.75;49.65
44839;BME280;30576;42.098;24.876;2023-02-25T11:35:19;98746.03;;;15.48;49.35
44839;BME280;30576;42.098;24.876;2023-02-25T11:37:46;98763.56;;;15.87;49.41
44839;BME280;30576;42.098;24.876;2023-02-25T11:40:21;98780.16;;;16.43;48.84
44839;BME280;30576;42.098;24.876;2023-02-25T11:45:37;98715.91;;;16.18;47.27
44839;BME280;30576;42.098;24.876;2023-02-25T11:48:13;98737.13;;;16.02;47.21
44839;BME280;30576;42.098;24.876;2023-02-25T11:53:59;98717.38;;;15.90;48.28
44839;BME280;30576;42.098;24.876;2023-02-25T11:56:37;98685.66;;;16.03;47.36
44839;BME280;30576;42.098;24.876;2023-02-25T11:59:21;98729.44;;;16.13;47.30
44839;BME280;30576;42.098;24.876;2023-02-25T12:05:01;98750.44;;;16.35;46.50
44839;BME280;30576;42.098;24.876;2023-02-25T12:21:52;98708.84;;;16.66;46.17
44839;BME280;30576;42.098;24.876;2023-02-25T12:24:35;98738.81;;;16.86;46.23
44839;BME280;30576;42.098;24.876;2023-02-25T12:41:52;98707.97;;;16.81;44.90
44839;BME280;30576;42.098;24.876;2023-02-25T12:47:00;98686.66;;;16.81;43.17
44839;BME280;30576;42.098;24.876;2023-02-25T12:49:42;98683.56;;;17.05;42.99
44839;BME280;30576;42.098;24.876;2023-02-25T12:55:21;98682.13;;;16.99;43.47
44839;BME280;30576;42.098;24.876;2023-02-25T13:00:22;98689.59;;;17.09;45.12
44839;BME280;30576;42.098;24.876;2023-02-25T13:03:06;98637.34;;;16.74;44.81
44839;BME280;30576;42.098;24.876;2023-02-25T13:13:38;98663.53;;;17.14;44.84
44839;BME280;30576;42.098;24.876;2023-02-25T13:18:50;98666.88;;;17.48;44.75
44839;BME280;30576;42.098;24.876;2023-02-25T13:26:58;98614.03;;;17.10;43.94
44839;BME280;30576;42.098;24.876;2023-02-25T13:29:47;98592.72;;;16.63;44.31
44839;BME280;30576;42.098;24.876;2023-02-25T13:32:20;98666.25;;;17.28;44.19
44839;BME280;30576;42.098;24.876;2023-02-25T13:37:39;98672.13;;;17.64;43.64
44839;BME280;30576;42.098;24.876;2023-02-25T13:43:12;98615.50;;;17.15;43.34
44839;BME280;30576;42.098;24.876;2023-02-25T14:16:17;98653.44;;;17.94;42.20
44839;BME280;30576;42.098;24.876;2023-02-25T14:24:41;98588.22;;;17.41;42.40
44839;BME280;30576;42.098;24.876;2023-02-25T14:27:26;98629.97;;;17.85;42.43
44839;BME280;30576;42.098;24.876;2023-02-25T14:38:13;98622.91;;;17.84;42.71
44839;BME280;30576;42.098;24.876;2023-02-25T14:40:52;98615.88;;;17.83;42.43
44839;BME280;30576;42.098;24.876;2023-02-25T14:46:12;98593.78;;;17.66;43.60
44839;BME280;30576;42.098;24.876;2023-02-25T14:49:14;98636.91;;;17.73;43.47
44839;BME280;30576;42.098;24.876;2023-02-25T15:03:16;98618.66;;;16.92;45.66
44839;BME280;30576;42.098;24.876;2023-02-25T15:22:27;98621.59;;;16.87;45.35
44839;BME280;30576;42.098;24.876;2023-02-25T15:27:52;98631.19;;;16.42;46.63
44839;BME280;30576;42.098;24.876;2023-02-25T15:30:23;98630.00;;;16.32;47.02
44839;BME280;30576;42.098;24.876;2023-02-25T15:35:50;98636.50;;;16.42;46.65
44839;BME280;30576;42.098;24.876;2023-02-25T15:38:21;98652.22;;;16.46;46.58
44839;BME280;30576;42.098;24.876;2023-02-25T15:41:02;98605.72;;;16.38;46.47
44839;BME280;30576;42.098;24.876;2023-02-25T15:43:39;98623.88;;;16.14;46.92
44839;BME280;30576;42.098;24.876;2023-02-25T15:48:32;98656.78;;;16.28;46.59
44839;BME280;30576;42.098;24.876;2023-02-25T15:50:59;98626.88;;;15.91;47.28
44839;BME280;30576;42.098;24.876;2023-02-25T15:55:53;98659.06;;;16.19;47.42
44839;BME280;30576;42.098;24.876;2023-02-25T15:58:49;98654.50;;;16.05;47.45
44839;BME280;30576;42.098;24.876;2023-02-25T16:01:40;98648.13;;;15.91;47.70
44839;BME280;30576;42.098;24.876;2023-02-25T16:04:47;98647.75;;;15.82;48.19
44839;BME280;30576;42.098;24.876;2023-02-25T16:07:17;98644.16;;;15.83;48.39
44839;BME280;30576;42.098;24.876;2023-02-25T16:09:52;98612.56;;;15.43;49.08
44839;BME280;30576;42.098;24.876;2023-02-25T16:12:18;98607.56;;;15.37;48.92
44839;BME280;30576;42.098;24.876;2023-02-25T16:14:45;98620.53;;;15.08;50.64
44839;BME280;30576;42.098;24.876;2023-02-25T16:17:18;98636.84;;;15.35;49.28
44839;BME280;30576;42.098;24.876;2023-02-25T16:19:57;98656.94;;;15.24;50.28
44839;BME280;30576;42.098;24.876;2023-02-25T16:22:26;98624.34;;;15.02;50.61
44839;BME280;30576;42.098;24.876;2023-02-25T16:24:57;98656.78;;;15.27;49.88
44839;BME280;30576;42.098;24.876;2023-02-25T16:40:59;98659.59;;;14.50;51.38
44839;BME280;30576;42.098;24.876;2023-02-25T16:43:31;98667.38;;;14.15;52.35
44839;BME280;30576;42.098;24.876;2023-02-25T16:46:02;98653.22;;;13.96;51.84
44839;BME280;30576;42.098;24.876;2023-02-25T16:48:45;98601.38;;;13.51;52.70
44839;BME280;30576;42.098;24.876;2023-02-25T16:51:25;98665.81;;;13.72;53.90
44839;BME280;30576;42.098;24.876;2023-02-25T16:54:02;98672.63;;;13.77;53.84
44839;BME280;30576;42.098;24.876;2023-02-25T16:56:30;98651.81;;;13.68;53.13